sensor_id;sensor_type;location;lat;lon;timestamp;P1;durP1;ratioP1;P2;durP2;ratioP2
23280;SDS011;11809;56.390;-3.266;2023-05-10T00:00:38;1.70;;;0.77;;
23280;SDS011;11809;56.390;-3.266;2023-05-10T00:03:06;1.08;;;0.85;;
23280;SDS011;11809;56.390;-3.266;2023-05-10T00:05:33;1.38;;;0.70;;
23280;SDS011;11809;56.390;-3.266;2023-05-10T00:08:00;1.20;;;0.70;;
23280;SDS011;11809;56.390;-3.266;2023-05-10T00:10:27;1.17;;;0.77;;
23280;SDS011;11809;56.390;-3.266;2023-05-10T00:12:54;1.98;;;0.70;;
23280;SDS011;11809;56.390;-3.266;2023-05-10T00:15:21;0.65;;;0.60;;
23280;SDS011;11809;56.390;-3.266;2023-05-10T00:17:48;1.35;;;0.70;;
23280;SDS011;11809;56.390;-3.266;2023-05-10T00:20:15;1.15;;;0.90;;
23280;SDS011;11809;56.390;-3.266;2023-05-10T00:22:43;0.82;;;0.60;;
23280;SDS011;11809;56.390;-3.266;2023-05-10T00:25:10;1.60;;;1.00;;
23280;SDS011;11809;56.390;-3.266;2023-05-10T00:27:37;0.82;;;0.73;;
23280;SDS011;11809;56.390;-3.266;2023-05-10T00:30:04;0.70;;;0.70;;
23280;SDS011;11809;56.390;-3.266;2023-05-10T00:32:32;0.90;;;0.82;;
23280;SDS011;11809;56.390;-3.266;2023-05-10T00:34:59;0.82;;;0.70;;
23280;SDS011;11809;56.390;-3.266;2023-05-10T00:37:26;0.80;;;0.70;;
23280;SDS011;11809;56.390;-3.266;2023-05-10T00:39:53;0.90;;;0.63;;
23280;SDS011;11809;56.390;-3.266;2023-05-10T00:42:20;0.52;;;0.52;;
23280;SDS011;11809;56.390;-3.266;2023-05-10T00:44:47;1.48;;;0.98;;
23280;SDS011;11809;56.390;-3.266;2023-05-10T00:47:15;0.75;;;0.65;;
23280;SDS011;11809;56.390;-3.266;2023-05-10T00:49:42;1.58;;;0.63;;
23280;SDS011;11809;56.390;-3.266;2023-05-10T00:52:10;1.25;;;0.80;;
23280;SDS011;11809;56.390;-3.266;2023-05-10T00:54:37;0.82;;;0.70;;
23280;SDS011;11809;56.390;-3.266;2023-05-10T00:57:04;1.00;;;0.70;;
23280;SDS011;11809;56.390;-3.266;2023-05-10T00:59:31;0.88;;;0.70;;
23280;SDS011;11809;56.390;-3.266;2023-05-10T01:01:58;0.82;;;0.60;;
23280;SDS011;11809;56.390;-3.266;2023-05-10T01:04:25;1.02;;;0.60;;
23280;SDS011;11809;56.390;-3.266;2023-05-10T01:06:53;0.60;;;0.60;;
23280;SDS011;11809;56.390;-3.266;2023-05-10T01:09:22;1.08;;;0.70;;
23280;SDS011;11809;56.390;-3.266;2023-05-10T01:11:52;1.00;;;0.80;;
23280;SDS011;11809;56.390;-3.266;2023-05-10T01:14:20;0.80;;;0.70;;
23280;SDS011;11809;56.390;-3.266;2023-05-10T01:16:48;0.82;;;0.70;;
23280;SDS011;11809;56.390;-3.266;2023-05-10T01:19:24;0.60;;;0.60;;
23280;SDS011;11809;56.390;-3.266;2023-05-10T01:24:46;0.70;;;0.70;;
23280;SDS011;11809;56.390;-3.266;2023-05-10T01:36:19;1.02;;;0.60;;
23280;SDS011;11809;56.390;-3.266;2023-05-10T01:39:22;0.93;;;0.70;;
23280;SDS011;11809;56.390;-3.266;2023-05-10T01:41:54;1.45;;;0.80;;
23280;SDS011;11809;56.390;-3.266;2023-05-10T01:44:38;0.77;;;0.70;;
23280;SDS011;11809;56.390;-3.266;2023-05-10T01:49:42;0.52;;;0.52;;
23280;SDS011;11809;56.390;-3.266;2023-05-10T01:52:14;0.70;;;0.70;;
23280;SDS011;11809;56.390;-3.266;2023-05-10T01:54:49;3.72;;;0.70;;
23280;SDS011;11809;56.390;-3.266;2023-05-10T01:57:27;0.88;;;0.70;;
23280;SDS011;11809;56.390;-3.266;2023-05-10T02:00:01;0.70;;;0.70;;
23280;SDS011;11809;56.390;-3.266;2023-05-10T02:02:31;0.90;;;0.55;;
23280;SDS011;11809;56.390;-3.266;2023-05-10T02:05:02;0.70;;;0.60;;
23280;SDS011;11809;56.390;-3.266;2023-05-10T02:07:30;0.60;;;0.60;;
23280;SDS011;11809;56.390;-3.266;2023-05-10T02:10:01;2.00;;;0.70;;
23280;SDS011;11809;56.390;-3.266;2023-05-10T02:12:31;0.57;;;0.57;;
23280;SDS011;11809;56.390;-3.266;2023-05-10T02:15:02;1.20;;;0.65;;
23280;SDS011;11809;56.390;-3.266;2023-05-10T02:17:32;5.35;;;0.70;;
23280;SDS011;11809;56.390;-3.266;2023-05-10T02:20:01;6.70;;;0.93;;
23280;SDS011;11809;56.390;-3.266;2023-05-10T02:22:30;4.07;;;0.98;;
23280;SDS011;11809;56.390;-3.266;2023-05-10T02:24:59;3.55;;;0.80;;
23280;SDS011;11809;56.390;-3.266;2023-05-10T02:27:27;2.13;;;0.93;;
23280;SDS011;11809;56.390;-3.266;2023-05-10T02:29:56;1.23;;;0.70;;
23280;SDS011;11809;56.390;-3.266;2023-05-10T02:32:24;1.10;;;0.70;;
23280;SDS011;11809;56.390;-3.266;2023-05-10T02:34:54;1.00;;;0.70;;
23280;SDS011;11809;56.390;-3.266;2023-05-10T02:37:22;1.40;;;0.73;;
23280;SDS011;11809;56.390;-3.266;2023-05-10T02:39:52;1.20;;;0.82;;
23280;SDS011;11809;56.390;-3.266;2023-05-10T02:42:27;0.50;;;0.50;;
23280;SDS011;11809;56.390;-3.266;2023-05-10T02:44:59;0.85;;;0.75;;
23280;SDS011;11809;56.390;-3.266;2023-05-10T02:47:29;2.35;;;0.80;;
23280;SDS011;11809;56.390;-3.266;2023-05-10T02:49:56;1.25;;;0.80;;
23280;SDS011;11809;56.390;-3.266;2023-05-10T02:52:25;1.75;;;0.68;;
23280;SDS011;11809;56.390;-3.266;2023-05-10T02:54:55;0.60;;;0.60;;
23280;SDS011;11809;56.390;-3.266;2023-05-10T02:57:26;0.90;;;0.60;;
23280;SDS011;11809;56.390;-3.266;2023-05-10T02:59:55;1.20;;;0.77;;
23280;SDS011;11809;56.390;-3.266;2023-05-10T03:02:22;2.42;;;0.77;;
23280;SDS011;11809;56.390;-3.266;2023-05-10T03:04:50;0.60;;;0.60;;
23280;SDS011;11809;56.390;-3.266;2023-05-10T03:07:17;0.93;;;0.70;;
23280;SDS011;11809;56.390;-3.266;2023-05-10T03:09:48;1.05;;;0.70;;
23280;SDS011;11809;56.390;-3.266;2023-05-10T03:15:17;2.03;;;0.90;;
23280;SDS011;11809;56.390;-3.266;2023-05-10T03:20:33;0.70;;;0.60;;
23280;SDS011;11809;56.390;-3.266;2023-05-10T03:25:54;1.65;;;0.70;;
23280;SDS011;11809;56.390;-3.266;2023-05-10T03:28:21;0.70;;;0.70;;
23280;SDS011;11809;56.390;-3.266;2023-05-10T03:30:52;0.90;;;0.70;;
23280;SDS011;11809;56.390;-3.266;2023-05-10T03:33:20;1.17;;;0.63;;
23280;SDS011;11809;56.390;-3.266;2023-05-10T03:35:47;0.82;;;0.80;;
23280;SDS011;11809;56.390;-3.266;2023-05-10T03:38:14;0.90;;;0.50;;
23280;SDS011;11809;56.390;-3.266;2023-05-10T03:40:41;1.38;;;0.63;;
23280;SDS011;11809;56.390;-3.266;2023-05-10T03:43:08;0.93;;;0.70;;
23280;SDS011;11809;56.390;-3.266;2023-05-10T03:45:35;0.82;;;0.80;;
23280;SDS011;11809;56.390;-3.266;2023-05-10T03:48:03;1.27;;;0.75;;
23280;SDS011;11809;56.390;-3.266;2023-05-10T03:50:30;1.00;;;0.65;;
23280;SDS011;11809;56.390;-3.266;2023-05-10T03:52:57;1.33;;;0.68;;
23280;SDS011;11809;56.390;-3.266;2023-05-10T03:55:24;1.13;;;0.63;;
23280;SDS011;11809;56.390;-3.266;2023-05-10T03:57:51;1.25;;;0.60;;
23280;SDS011;11809;56.390;-3.266;2023-05-10T04:00:20;1.60;;;0.63;;
23280;SDS011;11809;56.390;-3.266;2023-05-10T04:02:47;2.55;;;0.50;;
23280;SDS011;11809;56.390;-3.266;2023-05-10T04:05:14;0.60;;;0.50;;
23280;SDS011;11809;56.390;-3.266;2023-05-10T04:07:41;0.85;;;0.70;;
23280;SDS011;11809;56.390;-3.266;2023-05-10T04:10:08;0.82;;;0.55;;
23280;SDS011;11809;56.390;-3.266;2023-05-10T04:12:35;1.17;;;0.70;;
23280;SDS011;11809;56.390;-3.266;2023-05-10T04:15:02;0.85;;;0.55;;
23280;SDS011;11809;56.390;-3.266;2023-05-10T04:17:29;0.77;;;0.63;;
23280;SDS011;11809;56.390;-3.266;2023-05-10T04:19:56;1.10;;;0.70;;
23280;SDS011;11809;56.390;-3.266;2023-05-10T04:22:23;1.02;;;0.90;;
23280;SDS011;11809;56.390;-3.266;2023-05-10T04:24:51;1.08;;;0.60;;
23280;SDS011;11809;56.390;-3.266;2023-05-10T04:27:18;3.05;;;0.60;;
23280;SDS011;11809;56.390;-3.266;2023-05-10T04:29:45;14.23;;;2.00;;
23280;SDS011;11809;56.390;-3.266;2023-05-10T04:32:12;11.52;;;1.27;;
23280;SDS011;11809;56.390;-3.266;2023-05-10T04:34:39;17.65;;;1.83;;
23280;SDS011;11809;56.390;-3.266;2023-05-10T04:37:06;9.73;;;1.23;;
23280;SDS011;11809;56.390;-3.266;2023-05-10T04:39:34;10.32;;;1.20;;
23280;SDS011;11809;56.390;-3.266;2023-05-10T04:42:02;2.70;;;0.80;;
23280;SDS011;11809;56.390;-3.266;2023-05-10T04:44:30;4.88;;;0.88;;
23280;SDS011;11809;56.390;-3.266;2023-05-10T04:46:57;4.90;;;0.90;;
23280;SDS011;11809;56.390;-3.266;2023-05-10T04:49:24;3.55;;;0.85;;
23280;SDS011;11809;56.390;-3.266;2023-05-10T04:51:51;3.72;;;0.95;;
23280;SDS011;11809;56.390;-3.266;2023-05-10T04:54:18;6.25;;;0.77;;
23280;SDS011;11809;56.390;-3.266;2023-05-10T04:56:45;5.82;;;1.08;;
23280;SDS011;11809;56.390;-3.266;2023-05-10T04:59:12;6.03;;;0.77;;
23280;SDS011;11809;56.390;-3.266;2023-05-10T05:01:39;8.45;;;1.02;;
23280;SDS011;11809;56.390;-3.266;2023-05-10T05:04:06;6.43;;;0.90;;
23280;SDS011;11809;56.390;-3.266;2023-05-10T05:06:33;15.85;;;1.70;;
23280;SDS011;11809;56.390;-3.266;2023-05-10T05:09:00;15.38;;;1.33;;
23280;SDS011;11809;56.390;-3.266;2023-05-10T05:11:27;14.48;;;1.55;;
23280;SDS011;11809;56.390;-3.266;2023-05-10T05:13:54;8.88;;;1.52;;
23280;SDS011;11809;56.390;-3.266;2023-05-10T05:16:21;7.70;;;1.35;;
23280;SDS011;11809;56.390;-3.266;2023-05-10T05:18:48;26.27;;;2.05;;
23280;SDS011;11809;56.390;-3.266;2023-05-10T05:21:15;19.83;;;1.85;;
23280;SDS011;11809;56.390;-3.266;2023-05-10T05:23:43;9.30;;;1.15;;
23280;SDS011;11809;56.390;-3.266;2023-05-10T05:26:10;11.82;;;1.00;;
23280;SDS011;11809;56.390;-3.266;2023-05-10T05:28:38;11.05;;;1.35;;
23280;SDS011;11809;56.390;-3.266;2023-05-10T05:31:05;8.13;;;1.20;;
23280;SDS011;11809;56.390;-3.266;2023-05-10T05:33:33;5.22;;;1.25;;
23280;SDS011;11809;56.390;-3.266;2023-05-10T05:36:01;8.18;;;1.63;;
23280;SDS011;11809;56.390;-3.266;2023-05-10T05:38:29;16.70;;;1.92;;
23280;SDS011;11809;56.390;-3.266;2023-05-10T05:40:56;8.93;;;1.50;;
23280;SDS011;11809;56.390;-3.266;2023-05-10T05:43:23;8.32;;;1.60;;
23280;SDS011;11809;56.390;-3.266;2023-05-10T05:45:54;9.77;;;1.48;;
23280;SDS011;11809;56.390;-3.266;2023-05-10T05:48:24;6.03;;;1.25;;
23280;SDS011;11809;56.390;-3.266;2023-05-10T05:50:55;8.23;;;1.55;;
23280;SDS011;11809;56.390;-3.266;2023-05-10T05:53:23;6.95;;;1.17;;
23280;SDS011;11809;56.390;-3.266;2023-05-10T05:55:51;8.93;;;1.55;;
23280;SDS011;11809;56.390;-3.266;2023-05-10T05:58:20;14.05;;;2.42;;
23280;SDS011;11809;56.390;-3.266;2023-05-10T06:00:48;28.42;;;2.45;;
23280;SDS011;11809;56.390;-3.266;2023-05-10T06:03:15;34.40;;;2.80;;
23280;SDS011;11809;56.390;-3.266;2023-05-10T06:05:42;47.75;;;4.50;;
23280;SDS011;11809;56.390;-3.266;2023-05-10T06:08:10;24.50;;;3.15;;
23280;SDS011;11809;56.390;-3.266;2023-05-10T06:10:37;20.52;;;2.50;;
23280;SDS011;11809;56.390;-3.266;2023-05-10T06:13:04;10.95;;;2.22;;
23280;SDS011;11809;56.390;-3.266;2023-05-10T06:15:31;19.70;;;2.22;;
23280;SDS011;11809;56.390;-3.266;2023-05-10T06:17:59;16.75;;;2.10;;
23280;SDS011;11809;56.390;-3.266;2023-05-10T06:20:26;14.82;;;2.20;;
23280;SDS011;11809;56.390;-3.266;2023-05-10T06:22:54;15.40;;;2.20;;
23280;SDS011;11809;56.390;-3.266;2023-05-10T06:25:21;12.30;;;2.15;;
23280;SDS011;11809;56.390;-3.266;2023-05-10T06:27:48;18.27;;;3.22;;
23280;SDS011;11809;56.390;-3.266;2023-05-10T06:30:19;18.80;;;2.63;;
23280;SDS011;11809;56.390;-3.266;2023-05-10T06:32:46;17.77;;;2.53;;
23280;SDS011;11809;56.390;-3.266;2023-05-10T06:35:13;29.15;;;3.05;;
23280;SDS011;11809;56.390;-3.266;2023-05-10T06:37:41;22.55;;;2.58;;
23280;SDS011;11809;56.390;-3.266;2023-05-10T06:40:08;46.83;;;3.80;;
23280;SDS011;11809;56.390;-3.266;2023-05-10T06:42:36;16.90;;;3.03;;
23280;SDS011;11809;56.390;-3.266;2023-05-10T06:45:03;15.52;;;2.55;;
23280;SDS011;11809;56.390;-3.266;2023-05-10T06:47:30;11.63;;;2.60;;
23280;SDS011;11809;56.390;-3.266;2023-05-10T06:49:58;8.15;;;2.30;;
23280;SDS011;11809;56.390;-3.266;2023-05-10T06:52:26;11.48;;;1.83;;
23280;SDS011;11809;56.390;-3.266;2023-05-10T06:54:56;12.55;;;2.40;;
23280;SDS011;11809;56.390;-3.266;2023-05-10T06:57:24;11.77;;;2.40;;
23280;SDS011;11809;56.390;-3.266;2023-05-10T07:00:00;10.15;;;1.90;;
23280;SDS011;11809;56.390;-3.266;2023-05-10T07:02:27;12.90;;;1.90;;
23280;SDS011;11809;56.390;-3.266;2023-05-10T07:04:55;4.43;;;1.55;;
23280;SDS011;11809;56.390;-3.266;2023-05-10T07:07:24;6.03;;;1.65;;
23280;SDS011;11809;56.390;-3.266;2023-05-10T07:09:52;7.20;;;1.70;;
23280;SDS011;11809;56.390;-3.266;2023-05-10T07:12:19;5.28;;;1.85;;
23280;SDS011;11809;56.390;-3.266;2023-05-10T07:14:46;22.05;;;1.92;;
23280;SDS011;11809;56.390;-3.266;2023-05-10T07:17:13;7.20;;;1.60;;
23280;SDS011;11809;56.390;-3.266;2023-05-10T07:19:40;5.95;;;1.50;;
23280;SDS011;11809;56.390;-3.266;2023-05-10T07:22:07;4.35;;;1.75;;
23280;SDS011;11809;56.390;-3.266;2023-05-10T07:24:35;5.40;;;1.67;;
23280;SDS011;11809;56.390;-3.266;2023-05-10T07:27:02;10.05;;;1.70;;
23280;SDS011;11809;56.390;-3.266;2023-05-10T07:29:29;3.47;;;1.40;;
23280;SDS011;11809;56.390;-3.266;2023-05-10T07:31:57;3.38;;;1.67;;
23280;SDS011;11809;56.390;-3.266;2023-05-10T07:34:24;2.45;;;1.40;;
23280;SDS011;11809;56.390;-3.266;2023-05-10T07:36:52;4.05;;;1.40;;
23280;SDS011;11809;56.390;-3.266;2023-05-10T07:39:19;2.78;;;1.17;;
23280;SDS011;11809;56.390;-3.266;2023-05-10T07:41:56;5.40;;;1.48;;
23280;SDS011;11809;56.390;-3.266;2023-05-10T07:44:23;7.68;;;1.35;;
23280;SDS011;11809;56.390;-3.266;2023-05-10T07:46:51;3.33;;;1.10;;
23280;SDS011;11809;56.390;-3.266;2023-05-10T07:49:18;3.38;;;1.20;;
23280;SDS011;11809;56.390;-3.266;2023-05-10T07:51:46;2.75;;;1.20;;
23280;SDS011;11809;56.390;-3.266;2023-05-10T07:54:13;1.48;;;0.70;;
23280;SDS011;11809;56.390;-3.266;2023-05-10T07:56:40;5.00;;;1.15;;
23280;SDS011;11809;56.390;-3.266;2023-05-10T07:59:21;4.65;;;1.10;;
23280;SDS011;11809;56.390;-3.266;2023-05-10T08:01:48;2.38;;;0.90;;
23280;SDS011;11809;56.390;-3.266;2023-05-10T08:04:15;1.98;;;1.00;;
23280;SDS011;11809;56.390;-3.266;2023-05-10T08:06:42;2.67;;;0.88;;
23280;SDS011;11809;56.390;-3.266;2023-05-10T08:09:09;5.05;;;1.10;;
23280;SDS011;11809;56.390;-3.266;2023-05-10T08:11:37;2.15;;;1.27;;
23280;SDS011;11809;56.390;-3.266;2023-05-10T08:14:04;2.28;;;1.00;;
23280;SDS011;11809;56.390;-3.266;2023-05-10T08:16:32;3.28;;;1.10;;
23280;SDS011;11809;56.390;-3.266;2023-05-10T08:19:00;2.40;;;1.10;;
23280;SDS011;11809;56.390;-3.266;2023-05-10T08:21:27;1.80;;;1.17;;
23280;SDS011;11809;56.390;-3.266;2023-05-10T08:23:54;3.13;;;1.17;;
23280;SDS011;11809;56.390;-3.266;2023-05-10T08:26:22;4.57;;;1.40;;
23280;SDS011;11809;56.390;-3.266;2023-05-10T08:28:50;2.85;;;1.35;;
23280;SDS011;11809;56.390;-3.266;2023-05-10T08:31:17;1.38;;;0.95;;
23280;SDS011;11809;56.390;-3.266;2023-05-10T08:33:45;2.00;;;1.30;;
23280;SDS011;11809;56.390;-3.266;2023-05-10T08:36:12;2.40;;;1.13;;
23280;SDS011;11809;56.390;-3.266;2023-05-10T08:38:42;1.77;;;1.25;;
23280;SDS011;11809;56.390;-3.266;2023-05-10T08:41:09;2.75;;;1.30;;
23280;SDS011;11809;56.390;-3.266;2023-05-10T08:43:38;4.25;;;1.23;;
23280;SDS011;11809;56.390;-3.266;2023-05-10T08:46:06;2.10;;;1.20;;
23280;SDS011;11809;56.390;-3.266;2023-05-10T08:48:35;7.53;;;1.25;;
23280;SDS011;11809;56.390;-3.266;2023-05-10T08:51:05;19.95;;;2.22;;
23280;SDS011;11809;56.390;-3.266;2023-05-10T08:53:33;24.08;;;2.90;;
23280;SDS011;11809;56.390;-3.266;2023-05-10T08:56:03;15.15;;;2.55;;
23280;SDS011;11809;56.390;-3.266;2023-05-10T08:58:30;7.55;;;1.75;;
23280;SDS011;11809;56.390;-3.266;2023-05-10T09:00:58;7.63;;;1.50;;
23280;SDS011;11809;56.390;-3.266;2023-05-10T09:03:26;17.13;;;1.80;;
23280;SDS011;11809;56.390;-3.266;2023-05-10T09:05:53;2.95;;;0.98;;
23280;SDS011;11809;56.390;-3.266;2023-05-10T09:08:25;4.20;;;1.30;;
23280;SDS011;11809;56.390;-3.266;2023-05-10T09:10:54;7.35;;;1.20;;
23280;SDS011;11809;56.390;-3.266;2023-05-10T09:13:22;2.25;;;0.98;;
23280;SDS011;11809;56.390;-3.266;2023-05-10T09:15:50;2.35;;;1.10;;
23280;SDS011;11809;56.390;-3.266;2023-05-10T09:18:18;5.88;;;1.30;;
23280;SDS011;11809;56.390;-3.266;2023-05-10T09:20:46;2.42;;;1.20;;
23280;SDS011;11809;56.390;-3.266;2023-05-10T09:23:13;1.58;;;1.00;;
23280;SDS011;11809;56.390;-3.266;2023-05-10T09:25:43;2.88;;;1.30;;
23280;SDS011;11809;56.390;-3.266;2023-05-10T09:28:11;2.03;;;1.10;;
23280;SDS011;11809;56.390;-3.266;2023-05-10T09:30:38;2.22;;;1.08;;
23280;SDS011;11809;56.390;-3.266;2023-05-10T09:33:06;3.53;;;1.20;;
23280;SDS011;11809;56.390;-3.266;2023-05-10T09:35:33;4.65;;;1.20;;
23280;SDS011;11809;56.390;-3.266;2023-05-10T09:38:02;4.35;;;0.98;;
23280;SDS011;11809;56.390;-3.266;2023-05-10T09:40:31;8.82;;;1.23;;
23280;SDS011;11809;56.390;-3.266;2023-05-10T09:42:59;2.42;;;1.17;;
23280;SDS011;11809;56.390;-3.266;2023-05-10T09:45:29;6.43;;;1.05;;
23280;SDS011;11809;56.390;-3.266;2023-05-10T09:47:57;22.90;;;1.90;;
23280;SDS011;11809;56.390;-3.266;2023-05-10T09:50:26;8.32;;;2.00;;
23280;SDS011;11809;56.390;-3.266;2023-05-10T09:55:26;3.83;;;1.83;;
23280;SDS011;11809;56.390;-3.266;2023-05-10T09:58:05;3.75;;;1.48;;
23280;SDS011;11809;56.390;-3.266;2023-05-10T10:00:38;2.88;;;1.40;;
23280;SDS011;11809;56.390;-3.266;2023-05-10T10:03:13;2.83;;;1.30;;
23280;SDS011;11809;56.390;-3.266;2023-05-10T10:05:52;1.25;;;1.15;;
23280;SDS011;11809;56.390;-3.266;2023-05-10T10:08:20;8.85;;;1.52;;
23280;SDS011;11809;56.390;-3.266;2023-05-10T10:10:47;4.93;;;1.63;;
23280;SDS011;11809;56.390;-3.266;2023-05-10T10:13:17;3.90;;;1.75;;
23280;SDS011;11809;56.390;-3.266;2023-05-10T10:15:46;3.00;;;1.70;;
23280;SDS011;11809;56.390;-3.266;2023-05-10T10:18:17;2.25;;;1.70;;
23280;SDS011;11809;56.390;-3.266;2023-05-10T10:20:50;2.78;;;1.63;;
23280;SDS011;11809;56.390;-3.266;2023-05-10T10:23:17;2.42;;;1.80;;
23280;SDS011;11809;56.390;-3.266;2023-05-10T10:25:45;7.93;;;1.92;;
23280;SDS011;11809;56.390;-3.266;2023-05-10T10:28:17;4.57;;;1.80;;
23280;SDS011;11809;56.390;-3.266;2023-05-10T10:30:48;5.53;;;1.98;;
23280;SDS011;11809;56.390;-3.266;2023-05-10T10:36:13;3.03;;;1.92;;
23280;SDS011;11809;56.390;-3.266;2023-05-10T10:41:28;2.90;;;1.90;;
23280;SDS011;11809;56.390;-3.266;2023-05-10T10:49:32;2.83;;;1.70;;
23280;SDS011;11809;56.390;-3.266;2023-05-10T10:52:20;1.50;;;1.40;;
23280;SDS011;11809;56.390;-3.266;2023-05-10T10:57:25;2.67;;;1.17;;
23280;SDS011;11809;56.390;-3.266;2023-05-10T11:02:47;1.10;;;1.00;;
23280;SDS011;11809;56.390;-3.266;2023-05-10T11:13:54;6.00;;;1.10;;
23280;SDS011;11809;56.390;-3.266;2023-05-10T11:16:23;4.68;;;1.05;;
23280;SDS011;11809;56.390;-3.266;2023-05-10T11:21:50;11.52;;;1.52;;
23280;SDS011;11809;56.390;-3.266;2023-05-10T11:24:37;3.88;;;1.20;;
23280;SDS011;11809;56.390;-3.266;2023-05-10T11:27:05;7.65;;;0.98;;
23280;SDS011;11809;56.390;-3.266;2023-05-10T11:29:32;3.90;;;1.08;;
23280;SDS011;11809;56.390;-3.266;2023-05-10T11:32:00;5.65;;;1.27;;
23280;SDS011;11809;56.390;-3.266;2023-05-10T11:34:28;11.15;;;1.25;;
23280;SDS011;11809;56.390;-3.266;2023-05-10T11:36:57;3.17;;;0.95;;
23280;SDS011;11809;56.390;-3.266;2023-05-10T11:39:28;2.90;;;0.95;;
23280;SDS011;11809;56.390;-3.266;2023-05-10T11:41:56;1.95;;;1.08;;
23280;SDS011;11809;56.390;-3.266;2023-05-10T11:44:33;4.05;;;1.60;;
23280;SDS011;11809;56.390;-3.266;2023-05-10T11:47:01;6.28;;;1.48;;
23280;SDS011;11809;56.390;-3.266;2023-05-10T11:49:28;4.03;;;1.92;;
23280;SDS011;11809;56.390;-3.266;2023-05-10T11:52:05;3.63;;;1.23;;
23280;SDS011;11809;56.390;-3.266;2023-05-10T11:54:34;1.83;;;0.95;;
23280;SDS011;11809;56.390;-3.266;2023-05-10T11:57:02;2.13;;;0.82;;
23280;SDS011;11809;56.390;-3.266;2023-05-10T11:59:29;2.95;;;0.90;;
23280;SDS011;11809;56.390;-3.266;2023-05-10T12:01:56;5.47;;;0.60;;
23280;SDS011;11809;56.390;-3.266;2023-05-10T12:04:23;3.40;;;0.75;;
23280;SDS011;11809;56.390;-3.266;2023-05-10T12:06:51;6.78;;;0.80;;
23280;SDS011;11809;56.390;-3.266;2023-05-10T12:09:18;9.30;;;1.15;;
23280;SDS011;11809;56.390;-3.266;2023-05-10T12:12:06;3.50;;;0.50;;
23280;SDS011;11809;56.390;-3.266;2023-05-10T12:14:35;33.58;;;2.50;;
23280;SDS011;11809;56.390;-3.266;2023-05-10T12:17:03;36.60;;;2.70;;
23280;SDS011;11809;56.390;-3.266;2023-05-10T12:19:36;14.18;;;1.33;;
23280;SDS011;11809;56.390;-3.266;2023-05-10T12:22:05;12.93;;;1.40;;
23280;SDS011;11809;56.390;-3.266;2023-05-10T12:24:36;9.65;;;0.82;;
23280;SDS011;11809;56.390;-3.266;2023-05-10T12:27:05;8.82;;;1.05;;
23280;SDS011;11809;56.390;-3.266;2023-05-10T12:29:48;10.52;;;1.30;;
23280;SDS011;11809;56.390;-3.266;2023-05-10T12:32:38;10.73;;;1.45;;
23280;SDS011;11809;56.390;-3.266;2023-05-10T12:35:12;2.35;;;0.80;;
23280;SDS011;11809;56.390;-3.266;2023-05-10T12:37:41;4.10;;;0.88;;
23280;SDS011;11809;56.390;-3.266;2023-05-10T12:40:10;4.57;;;1.00;;
23280;SDS011;11809;56.390;-3.266;2023-05-10T12:42:39;1.92;;;0.80;;
23280;SDS011;11809;56.390;-3.266;2023-05-10T12:45:07;3.85;;;1.00;;
23280;SDS011;11809;56.390;-3.266;2023-05-10T12:47:35;9.63;;;1.25;;
23280;SDS011;11809;56.390;-3.266;2023-05-10T12:50:06;5.13;;;0.90;;
23280;SDS011;11809;56.390;-3.266;2023-05-10T12:52:35;4.57;;;0.82;;
23280;SDS011;11809;56.390;-3.266;2023-05-10T12:55:02;4.93;;;1.15;;
23280;SDS011;11809;56.390;-3.266;2023-05-10T12:57:30;8.55;;;0.98;;
23280;SDS011;11809;56.390;-3.266;2023-05-10T12:59:57;4.95;;;0.80;;
23280;SDS011;11809;56.390;-3.266;2023-05-10T13:02:25;6.80;;;0.73;;
23280;SDS011;11809;56.390;-3.266;2023-05-10T13:04:52;1.95;;;0.70;;
23280;SDS011;11809;56.390;-3.266;2023-05-10T13:07:20;3.20;;;0.70;;
23280;SDS011;11809;56.390;-3.266;2023-05-10T13:09:47;2.88;;;0.60;;
23280;SDS011;11809;56.390;-3.266;2023-05-10T13:12:15;2.03;;;0.70;;
23280;SDS011;11809;56.390;-3.266;2023-05-10T13:14:42;4.45;;;0.70;;
23280;SDS011;11809;56.390;-3.266;2023-05-10T13:17:10;8.00;;;0.77;;
23280;SDS011;11809;56.390;-3.266;2023-05-10T13:19:37;2.55;;;0.68;;
23280;SDS011;11809;56.390;-3.266;2023-05-10T13:22:04;4.90;;;0.70;;
23280;SDS011;11809;56.390;-3.266;2023-05-10T13:24:31;2.13;;;0.65;;
23280;SDS011;11809;56.390;-3.266;2023-05-10T13:26:59;3.15;;;0.70;;
23280;SDS011;11809;56.390;-3.266;2023-05-10T13:29:26;2.70;;;0.63;;
23280;SDS011;11809;56.390;-3.266;2023-05-10T13:31:53;2.17;;;0.60;;
23280;SDS011;11809;56.390;-3.266;2023-05-10T13:34:21;3.25;;;0.65;;
23280;SDS011;11809;56.390;-3.266;2023-05-10T13:36:49;1.88;;;0.68;;
23280;SDS011;11809;56.390;-3.266;2023-05-10T13:39:16;3.33;;;0.75;;
23280;SDS011;11809;56.390;-3.266;2023-05-10T13:41:43;10.27;;;0.90;;
23280;SDS011;11809;56.390;-3.266;2023-05-10T13:44:12;8.85;;;0.90;;
23280;SDS011;11809;56.390;-3.266;2023-05-10T13:46:41;5.53;;;1.20;;
23280;SDS011;11809;56.390;-3.266;2023-05-10T13:49:09;1.58;;;0.88;;
23280;SDS011;11809;56.390;-3.266;2023-05-10T13:51:36;4.03;;;0.60;;
23280;SDS011;11809;56.390;-3.266;2023-05-10T13:54:03;4.07;;;0.60;;
23280;SDS011;11809;56.390;-3.266;2023-05-10T13:56:30;11.52;;;1.20;;
23280;SDS011;11809;56.390;-3.266;2023-05-10T13:58:57;15.27;;;1.67;;
23280;SDS011;11809;56.390;-3.266;2023-05-10T14:01:25;13.40;;;1.45;;
23280;SDS011;11809;56.390;-3.266;2023-05-10T14:03:52;13.60;;;1.10;;
23280;SDS011;11809;56.390;-3.266;2023-05-10T14:06:19;1.88;;;0.73;;
23280;SDS011;11809;56.390;-3.266;2023-05-10T14:08:46;8.95;;;0.90;;
23280;SDS011;11809;56.390;-3.266;2023-05-10T14:11:13;12.70;;;1.08;;
23280;SDS011;11809;56.390;-3.266;2023-05-10T14:13:40;5.97;;;0.80;;
23280;SDS011;11809;56.390;-3.266;2023-05-10T14:16:08;3.45;;;0.70;;
23280;SDS011;11809;56.390;-3.266;2023-05-10T14:18:35;5.65;;;0.80;;
23280;SDS011;11809;56.390;-3.266;2023-05-10T14:21:02;10.25;;;1.02;;
23280;SDS011;11809;56.390;-3.266;2023-05-10T14:23:30;13.48;;;1.20;;
23280;SDS011;11809;56.390;-3.266;2023-05-10T14:25:57;5.45;;;1.13;;
23280;SDS011;11809;56.390;-3.266;2023-05-10T14:28:24;3.53;;;0.80;;
23280;SDS011;11809;56.390;-3.266;2023-05-10T14:30:52;2.63;;;0.73;;
23280;SDS011;11809;56.390;-3.266;2023-05-10T14:33:19;4.07;;;0.95;;
23280;SDS011;11809;56.390;-3.266;2023-05-10T14:35:47;2.17;;;0.57;;
23280;SDS011;11809;56.390;-3.266;2023-05-10T14:38:14;6.15;;;0.70;;
23280;SDS011;11809;56.390;-3.266;2023-05-10T14:40:41;5.78;;;0.70;;
23280;SDS011;11809;56.390;-3.266;2023-05-10T14:43:09;18.75;;;1.48;;
23280;SDS011;11809;56.390;-3.266;2023-05-10T14:45:36;13.75;;;1.15;;
23280;SDS011;11809;56.390;-3.266;2023-05-10T14:48:03;17.55;;;1.02;;
23280;SDS011;11809;56.390;-3.266;2023-05-10T14:50:31;4.47;;;0.95;;
23280;SDS011;11809;56.390;-3.266;2023-05-10T14:53:02;6.85;;;1.05;;
23280;SDS011;11809;56.390;-3.266;2023-05-10T14:55:30;21.20;;;1.33;;
23280;SDS011;11809;56.390;-3.266;2023-05-10T14:57:57;8.35;;;0.98;;
23280;SDS011;11809;56.390;-3.266;2023-05-10T15:00:25;12.50;;;1.05;;
23280;SDS011;11809;56.390;-3.266;2023-05-10T15:02:53;20.10;;;1.13;;
23280;SDS011;11809;56.390;-3.266;2023-05-10T15:05:20;12.20;;;1.63;;
23280;SDS011;11809;56.390;-3.266;2023-05-10T15:07:48;11.57;;;1.20;;
23280;SDS011;11809;56.390;-3.266;2023-05-10T15:10:16;27.98;;;2.08;;
23280;SDS011;11809;56.390;-3.266;2023-05-10T15:12:43;19.40;;;1.50;;
23280;SDS011;11809;56.390;-3.266;2023-05-10T15:15:10;18.60;;;1.42;;
23280;SDS011;11809;56.390;-3.266;2023-05-10T15:17:37;4.18;;;0.85;;
23280;SDS011;11809;56.390;-3.266;2023-05-10T15:20:04;4.85;;;0.70;;
23280;SDS011;11809;56.390;-3.266;2023-05-10T15:22:32;5.72;;;1.05;;
23280;SDS011;11809;56.390;-3.266;2023-05-10T15:24:59;7.90;;;1.48;;
23280;SDS011;11809;56.390;-3.266;2023-05-10T15:27:26;8.65;;;1.00;;
23280;SDS011;11809;56.390;-3.266;2023-05-10T15:29:53;6.63;;;0.80;;
23280;SDS011;11809;56.390;-3.266;2023-05-10T15:32:21;3.92;;;0.70;;